Millersburg, MI (49759)

7:57 PM EDT on September 01, 2015 (GMT -0400)
Rainy River | | Change Station
CLOSE
Current Station
Personal Weather Station
Location: Onaway, MI
Elevation: 673 ft
Nearby Weather Stations

Elev 673 ft 45.43 °N, 84.20 °W | Updated 1 minute ago

Clear
Clear
81.5 °F
Feels Like 86 °F
N
0.0
Wind Variable Wind from NNW

Today
High -- | Low -- °F
--% Chance of Precip.
Yesterday
High -- | Low -- °F
Precip. -- in
6:57 AM 8:14 PM
Waning Gibbous, 85% visible
Pressure 29.97 in
Visibility 7.0 miles
Clouds Scattered Clouds 5500 ft
Scattered Clouds 7000 ft
Heat Index 86 °F
Dew Point 72 °F
Humidity 73%
Rainfall 0.00 in
Snow Depth Not available.
UV 0 out of 12
Pollen 10.40 out of 12
Air Quality Not available.
Flu Activity Not available.
METAR KPZQ 012335Z AUTO 00000KT 7SM SCT055 SCT070 26/22 A2997 RMK AO2 T02630219
Pressure 29.97 in
Visibility 7.0 miles
Clouds Scattered Clouds 5500 ft
Scattered Clouds 7000 ft
Heat Index 86 °F
Dew Point 72 °F
Humidity 73%
Rainfall 0.00 in
Snow Depth Not available.
UV 0 out of 12
Pollen 10.40 out of 12
Air Quality Not available.
Flu Activity Not available.
METAR KPZQ 012335Z AUTO 00000KT 7SM SCT055 SCT070 26/22 A2997 RMK AO2 T02630219
Nowcast | as of 7:00 PM EDT on September 1, 2015

At 8 PM...mostly clear. Temperature 72. Light winds. At 10 PM...partly cloudy. Temperature 67. Light winds. At 12 am...partly cloudy. Areas of fog. Temperature 66. Light winds. At 2 am...mostly clear. Areas of fog. Temperature 68. Light winds.

×

10-Day Weather Forecast

×

Almanac

Astronomy

Sep. 01, 2015 Rise Set
Actual Time
Civil Twilight
Nautical Twilight
Astronomical Twilight
Moon
Length of Visible Light
Length of Day
Tomorrow will be .
, % of the Moon is Illuminated

Today's Extremes

State Highs State Lows

Community

WunderPhotos

Upload Photos

1,851,643 photos uploaded!

WunderBlogs® & News

Nearby

Air Quality

  Air Quality AQ Index Pollutant
Not available.

Snow Depth

Station Depth Elevation

Earthquake Activity

City Distance Mag. Time & Date
Minimum magnitude displayed is 2.5.

Coastal Water Temperatures

Place Temperature

Stations

Nearby Weather Stations

Station Location Temp. Windchill Dew Point Humidity Wind Precip. Elev Updated Type